Terminal Aerodrome Forecast
Issued by NWS

Home | Current Version | Previous Version | Text Only | Print | Product List | Glossary On
Versions: 1 2 3 4 5 6 7 8 9 10 11 12
000
FTUS44 KEPZ 221138
TAFLRU
TAF
KLRU 221138Z 2212/2312 13005KT P6SM SKC
     FM221700 23008KT P6SM FEW080 SCT140 SCT250
     FM222100 27013G22KT P6SM FEW100 SCT250
     FM230300 30010KT P6SM SKC=

USA.gov is the U.S. government's official web portal to all federal, state and local government web resources and services.